Dades meteomassalio
Diari Summary for Setembre 13, 2017 Units:  Metric    English   Both
« Previous Day
Next Day »
Diari Semanal Mensual Anual Personalitzat
  Maxima: Minima: Mijana:
Temperatura: -17.8 °C -13.2 °C -7.4 °C
Rosada: -17.8 °C -15.4 °C -12.7 °C
Humitat: Humidity % 30 % 57 %
Velocitat del vent: 0 km/h 0 km/h 6 km/h
Racha vent: 0 km/h - -
Vent:- - SSE
Pressio: 0 hPa 34510.1 hPa -
Pluja: 0 mm    
Historical Graphs
 
 
Tabular Data for Setembre 13, 2017
Time Temperature Dew Point Pressure Wind Wind Speed Wind Gust Humidity Rainfall Rate (Hourly) solar Conditions
-17.8 °C -17.8 °C 0 hPa Calm     Humidity % 0 mm SolarRadiationWatts/m^2 W/m2 Conditions
00:04 -10.7 °C -14.6 °C 34645.6 hPa Calm     62 % 0 mm 0.0 W/m2 CLR
00:09 -10.7 °C -14.6 °C 34645.6 hPa Calm     62 % 0 mm 0.0 W/m2 CLR
00:14 -10.7 °C -14.6 °C 34659.1 hPa Calm     62 % 0 mm 0.0 W/m2 CLR
00:19 -10.7 °C -14.5 °C 34659.1 hPa Calm     63 % 0 mm 0.0 W/m2 CLR
00:24 -10.7 °C -14.5 °C 34659.1 hPa Calm     63 % 0 mm 0.0 W/m2 CLR
00:29 -11 °C -14.9 °C 34659.1 hPa Calm     62 % 0 mm 0.0 W/m2 CLR
00:34 -11 °C -14.9 °C 34659.1 hPa Calm     62 % 0 mm 0.0 W/m2 CLR
00:39 -11.3 °C -15.2 °C 34659.1 hPa Calm     62 % 0 mm 0.0 W/m2 CLR
00:44 -11.3 °C -15.1 °C 34659.1 hPa Calm     63 % 0 mm 0.0 W/m2 CLR
00:49 -11.6 °C -15.4 °C 34659.1 hPa Calm     63 % 0 mm 0.0 W/m2 CLR
00:54 -11.6 °C -15.2 °C 34659.1 hPa Calm     64 % 0 mm 0.0 W/m2 CLR
00:59 -11.6 °C -15.2 °C 34659.1 hPa Calm     64 % 0 mm 0.0 W/m2 CLR
01:01 -11.6 °C -15.1 °C 34659.1 hPa Calm     65 % 0 mm 0.0 W/m2 CLR
01:06 -11.9 °C -15.3 °C 34659.1 hPa Calm     66 % 0 mm 0.0 W/m2 CLR
01:11 -11.9 °C -15.3 °C 34659.1 hPa Calm     66 % 0 mm 0.0 W/m2 CLR
01:12 -11.9 °C -15.3 °C 34659.1 hPa Calm     66 % 0 mm 0.0 W/m2 CLR
01:17 -11.9 °C -15.3 °C 34659.1 hPa Calm     66 % 0 mm 0.0 W/m2 CLR
01:22 -11.9 °C -15.3 °C 34659.1 hPa Calm     66 % 0 mm 0.0 W/m2 CLR
01:27 -11.9 °C -15.2 °C 34669.3 hPa Calm     67 % 0 mm 0.0 W/m2 CLR
01:32 -11.9 °C -15.2 °C 34669.3 hPa Calm     67 % 0 mm 0.0 W/m2 CLR
01:37 -11.9 °C -15.1 °C 34669.3 hPa Calm     68 % 0 mm 0.0 W/m2 CLR
01:42 -11.9 °C -15.1 °C 34669.3 hPa Calm     68 % 0 mm 0.0 W/m2 CLR
01:47 -11.9 °C -14.9 °C 34669.3 hPa Calm     69 % 0 mm 0.0 W/m2 CLR
01:52 -11.9 °C -14.9 °C 34669.3 hPa Calm     69 % 0 mm 0.0 W/m2 CLR
01:57 -11.9 °C -14.9 °C 34669.3 hPa Calm     69 % 0 mm 0.0 W/m2 CLR
02:02 -11.9 °C -14.8 °C 34669.3 hPa Calm     70 % 0 mm 0.0 W/m2 CLR
02:07 -11.9 °C -14.8 °C 34669.3 hPa Calm     70 % 0 mm 0.0 W/m2 CLR
02:12 -11.9 °C -14.8 °C 34669.3 hPa Calm     70 % 0 mm 0.0 W/m2 CLR
02:17 -11.9 °C -14.8 °C 34669.3 hPa Calm     70 % 0 mm 0.0 W/m2 CLR
02:22 -11.9 °C -14.8 °C 34669.3 hPa Calm     70 % 0 mm 0.0 W/m2 CLR
02:27 -11.9 °C -14.7 °C 34669.3 hPa Calm     71 % 0 mm 0.0 W/m2 CLR
02:32 -11.9 °C -14.6 °C 34669.3 hPa Calm     72 % 0 mm 0.0 W/m2 CLR
02:37 -12.2 °C -14.9 °C 34669.3 hPa Calm     72 % 0 mm 0.0 W/m2 CLR
02:42 -12.2 °C -14.9 °C 34669.3 hPa Calm     72 % 0 mm 0.0 W/m2 CLR
02:47 -12.2 °C -14.8 °C 34682.8 hPa Calm     73 % 0 mm 0.0 W/m2 CLR
02:52 -12.2 °C -14.8 °C 34682.8 hPa Calm     73 % 0 mm 0.0 W/m2 CLR
02:57 -11.9 °C -14.5 °C 34682.8 hPa Calm     73 % 0 mm 0.0 W/m2 CLR
03:02 -12.2 °C -14.8 °C 34682.8 hPa Calm     73 % 0 mm 0.0 W/m2 CLR
03:07 -11.9 °C -14.5 °C 34682.8 hPa Calm     73 % 0 mm 0.0 W/m2 CLR
03:12 -11.9 °C -14.5 °C 34669.3 hPa Calm     73 % 0 mm 0.0 W/m2 CLR
03:17 -11.9 °C -14.5 °C 34669.3 hPa Calm     73 % 0 mm 0.0 W/m2 CLR
03:22 -11.9 °C -14.5 °C 34682.8 hPa Calm     73 % 0 mm 0.0 W/m2 CLR
03:27 -11.9 °C -14.6 °C 34682.8 hPa Calm     72 % 0 mm 0.0 W/m2 CLR
03:32 -11.9 °C -14.6 °C 34682.8 hPa Calm     72 % 0 mm 0.0 W/m2 CLR
03:37 -11.9 °C -14.5 °C 34682.8 hPa Calm     73 % 0 mm 0.0 W/m2 CLR
03:42 -11.9 °C -14.5 °C 34682.8 hPa Calm     73 % 0 mm 0.0 W/m2 CLR
03:47 -11.9 °C -14.5 °C 34682.8 hPa Calm     73 % 0 mm 0.0 W/m2 CLR
03:52 -11.9 °C -14.4 °C 34682.8 hPa Calm     74 % 0 mm 0.0 W/m2 CLR
03:57 -11.9 °C -14.4 °C 34682.8 hPa Calm     74 % 0 mm 0.0 W/m2 CLR
04:02 -12.2 °C -14.7 °C 34682.8 hPa Calm     74 % 0 mm 0.0 W/m2 CLR
04:07 -11.9 °C -14.4 °C 34682.8 hPa Calm     74 % 0 mm 0.0 W/m2 CLR
04:12 -11.9 °C -14.4 °C 34682.8 hPa Calm     74 % 0 mm 0.0 W/m2 CLR
04:17 -11.9 °C -14.4 °C 34682.8 hPa Calm     74 % 0 mm 0.0 W/m2 CLR
04:22 -12.2 °C -14.7 °C 34682.8 hPa Calm     74 % 0 mm 0.0 W/m2 CLR
04:27 -12.2 °C -14.6 °C 34669.3 hPa Calm     75 % 0 mm 0.0 W/m2 CLR
04:32 -12.2 °C -14.6 °C 34669.3 hPa Calm     75 % 0 mm 0.0 W/m2 CLR
04:37 -12.2 °C -14.6 °C 34669.3 hPa Calm     75 % 0 mm 0.0 W/m2 CLR
04:42 -12.2 °C -14.5 °C 34669.3 hPa Calm     76 % 0 mm 0.0 W/m2 CLR
04:47 -12.2 °C -14.5 °C 34669.3 hPa Calm     76 % 0 mm 0.0 W/m2 CLR
04:52 -12.2 °C -14.5 °C 34669.3 hPa Calm     76 % 0 mm 0.0 W/m2 CLR
04:57 -12.2 °C -14.5 °C 34669.3 hPa Calm     76 % 0 mm 0.0 W/m2 CLR
05:02 -12.2 °C -14.3 °C 34669.3 hPa Calm     77 % 0 mm 0.0 W/m2 CLR
05:07 -12.2 °C -14.3 °C 34669.3 hPa Calm     77 % 0 mm 0.0 W/m2 CLR
05:13 -12.2 °C -14.3 °C 34669.3 hPa Calm     77 % 0 mm 0.0 W/m2 CLR
05:19 -12.2 °C -14.3 °C 34669.3 hPa Calm     77 % 0 mm 0.0 W/m2 CLR
05:23 -12.2 °C -14.3 °C 34669.3 hPa Calm     77 % 0 mm 0.0 W/m2 CLR
05:28 -12.6 °C -14.8 °C 34669.3 hPa Calm     76 % 0 mm 0.0 W/m2 CLR
05:30 -12.6 °C -14.8 °C 34669.3 hPa Calm     76 % 0 mm 0.0 W/m2 CLR
05:35 -12.6 °C -14.8 °C 34669.3 hPa Calm     76 % 0 mm 0.0 W/m2 CLR
05:40 -12.6 °C -14.8 °C 34669.3 hPa Calm     76 % 0 mm 0.0 W/m2 CLR
05:45 -12.6 °C -14.8 °C 34669.3 hPa Calm     76 % 0 mm 0.0 W/m2 CLR
05:50 -12.8 °C -14.9 °C 34669.3 hPa Calm     77 % 0 mm 0.0 W/m2 CLR
05:55 -12.8 °C -14.9 °C 34669.3 hPa Calm     77 % 0 mm 0.0 W/m2 CLR
06:00 -12.8 °C -14.9 °C 34682.8 hPa Calm     77 % 0 mm 0.0 W/m2 CLR
06:05 -12.8 °C -14.9 °C 34682.8 hPa Calm     77 % 0 mm 0.0 W/m2 CLR
06:10 -12.8 °C -14.9 °C 34682.8 hPa Calm     77 % 0 mm 0.0 W/m2 CLR
06:15 -12.8 °C -14.8 °C 34682.8 hPa Calm     78 % 0 mm 0.0 W/m2 CLR
06:20 -12.8 °C -14.8 °C 34682.8 hPa Calm     78 % 0 mm 0.0 W/m2 CLR
06:25 -12.8 °C -14.8 °C 34682.8 hPa Calm     78 % 0 mm 0.0 W/m2 CLR
06:30 -12.8 °C -14.8 °C 34682.8 hPa Calm     78 % 0 mm 0.0 W/m2 CLR
06:35 -13.2 °C -15.2 °C 34682.8 hPa Calm     78 % 0 mm 0.0 W/m2 CLR
06:40 -13.2 °C -15.1 °C 34682.8 hPa Calm     79 % 0 mm 0.0 W/m2 CLR
06:45 -12.8 °C -14.8 °C 34682.8 hPa Calm     79 % 0 mm 0.0 W/m2 CLR
06:50 -13.2 °C -15.1 °C 34682.8 hPa Calm     79 % 0 mm 0.0 W/m2 CLR
06:55 -13.2 °C -14.9 °C 34682.8 hPa Calm     80 % 0 mm 0.0 W/m2 CLR
07:00 -13.2 °C -14.9 °C 34693 hPa Calm     80 % 0 mm 0.0 W/m2 CLR
07:05 -13.2 °C -14.8 °C 34693 hPa Calm     81 % 0 mm 0.0 W/m2 CLR
07:10 -13.2 °C -14.9 °C 34693 hPa Calm     80 % 0 mm 0.0 W/m2 CLR
07:15 -13.2 °C -14.8 °C 34693 hPa Calm     81 % 0 mm 0.0 W/m2 CLR
07:20 -13.2 °C -14.8 °C 34693 hPa Calm     81 % 0 mm 0.0 W/m2 CLR
07:25 -13.2 °C -14.8 °C 34703.1 hPa Calm     82 % 0 mm 0.0 W/m2 CLR
07:30 -13.2 °C -14.8 °C 34703.1 hPa Calm     82 % 0 mm 0.0 W/m2 OVC
07:35 -13.2 °C -14.8 °C 34703.1 hPa Calm     82 % 0 mm 0.0 W/m2 OVC
07:40 -13.2 °C -14.8 °C 34703.1 hPa Calm     82 % 0 mm 5.0 W/m2 OVC
07:45 -13.2 °C -14.8 °C 34703.1 hPa Calm     82 % 0 mm 9.0 W/m2 BKN
07:50 -13.2 °C -14.8 °C 34716.7 hPa Calm     82 % 0 mm 11.0 W/m2 BKN
07:55 -13.2 °C -14.8 °C 34716.7 hPa Calm     82 % 0 mm 12.0 W/m2 BKN
08:00 -13.2 °C -14.8 °C 34716.7 hPa Calm     82 % 0 mm 14.0 W/m2 BKN
08:05 -12.8 °C -14.6 °C 34716.7 hPa Calm     81 % 0 mm 18.0 W/m2 BKN
08:10 -12.8 °C -14.6 °C 34716.7 hPa Calm     81 % 0 mm 26.0 W/m2 BKN
08:15 -12.8 °C -14.6 °C 34716.7 hPa Calm     81 % 0 mm 39.0 W/m2 BKN
08:20 -12.8 °C -14.7 °C 34716.7 hPa Calm     80 % 0 mm 47.0 W/m2 SCT
08:25 -12.6 °C -14.4 °C 34716.7 hPa Calm     79 % 0 mm 62.0 W/m2 SCT
08:30 -12.2 °C -14.3 °C 34703.1 hPa Calm     78 % 0 mm 49.0 W/m2 SCT
08:35 -12.2 °C -14.3 °C 34716.7 hPa Calm     78 % 0 mm 25.0 W/m2 BKN
08:40 -11.9 °C -14.1 °C 34716.7 hPa Calm     77 % 0 mm 26.0 W/m2 BKN
08:45 -11.6 °C -13.8 °C 34716.7 hPa Calm     76 % 0 mm 90.0 W/m2 BKN
08:50 -11.3 °C -13.7 °C 34716.7 hPa Calm     75 % 0 mm 142.0 W/m2 FEW
08:55 -11 °C -13.5 °C 34716.7 hPa Calm     74 % 0 mm 165.0 W/m2 CLR
09:01 -10.7 °C -13.4 °C 34716.7 hPa Calm     72 % 0 mm 181.0 W/m2 CLR
09:06 -10.7 °C -13.8 °C 34716.7 hPa Calm     69 % 0 mm 199.0 W/m2 CLR
09:11 -10.4 °C -13.7 °C 34716.7 hPa Calm     67 % 0 mm 218.0 W/m2 CLR
09:16 -10.1 °C -13.6 °C 34716.7 hPa Calm     66 % 0 mm 237.0 W/m2 CLR
09:21 -10.1 °C -13.6 °C 34716.7 hPa Calm     66 % 0 mm 251.0 W/m2 CLR
09:26 -9.4 °C -13.2 °C 34716.7 hPa Calm     64 % 0 mm 267.0 W/m2 CLR
09:31 -9.4 °C -13.1 °C 34716.7 hPa Calm     65 % 0 mm 283.0 W/m2 CLR
09:36 -9.1 °C -13 °C 34716.7 hPa Calm     63 % 0 mm 297.0 W/m2 CLR
09:41 -8.8 °C -12.9 °C 34716.7 hPa Calm     62 % 0 mm 315.0 W/m2 CLR
09:46 -8.5 °C -12.7 °C 34716.7 hPa Calm     61 % 0 mm 330.0 W/m2 CLR
09:51 -8.5 °C -12.8 °C 34716.7 hPa Calm     60 % 0 mm 345.0 W/m2 CLR
09:56 -8.2 °C -12.8 °C 34716.7 hPa Calm     58 % 0 mm 362.0 W/m2 CLR
10:01 -7.9 °C -12.6 °C 34716.7 hPa Calm     58 % 0 mm 378.0 W/m2 CLR
10:06 -7.6 °C -12.6 °C 34716.7 hPa Calm     56 % 0 mm 392.0 W/m2 CLR
10:11 -7.3 °C -12.6 °C 34716.7 hPa Calm     54 % 0 mm 406.0 W/m2 CLR
10:16 -6.7 °C -12.2 °C 34716.7 hPa Calm     53 % 0 mm 420.0 W/m2 CLR
10:21 -6.7 °C -12.3 °C 34716.7 hPa Calm     52 % 0 mm 439.0 W/m2 CLR
10:26 -6.3 °C -12.1 °C 34716.7 hPa Calm     52 % 0 mm 452.0 W/m2 CLR
10:31 -6.1 °C -11.9 °C 34716.7 hPa Calm     51 % 0 mm 466.0 W/m2 CLR
10:36 -6.1 °C -12.1 °C 34716.7 hPa Calm     50 % 0 mm 480.0 W/m2 CLR
10:41 -5.7 °C -11.9 °C 34716.7 hPa Calm     49 % 0 mm 496.0 W/m2 CLR
10:46 -5.7 °C -11.9 °C 34716.7 hPa Calm     49 % 0 mm 508.0 W/m2 CLR
10:51 -5.7 °C -12.1 °C 34716.7 hPa Calm     48 % 0 mm 520.0 W/m2 CLR
10:56 -5.7 °C -12.3 °C 34716.7 hPa Calm     47 % 0 mm 534.0 W/m2 CLR
11:01 -5.7 °C -12.3 °C 34716.7 hPa Calm     47 % 0 mm 548.0 W/m2 CLR
11:06 -5.4 °C -12 °C 34716.7 hPa Calm     47 % 0 mm 561.0 W/m2 CLR
11:11 -5.4 °C -12 °C 34716.7 hPa Calm     47 % 0 mm 571.0 W/m2 CLR
11:16 -5.1 °C -11.9 °C 34716.7 hPa Calm     46 % 0 mm 584.0 W/m2 CLR
11:21 -4.8 °C -11.8 °C 34716.7 hPa Calm     45 % 0 mm 596.0 W/m2 CLR
11:26 -4.8 °C -11.6 °C 34716.7 hPa Calm     46 % 0 mm 608.0 W/m2 CLR
11:31 -4.5 °C -11.3 °C 34716.7 hPa Calm     46 % 0 mm 621.0 W/m2 CLR
11:36 -4.8 °C -11.8 °C 34716.7 hPa NNE 9 km/h 9 km/h 45 % 0 mm 631.0 W/m2 CLR
11:41 -4.5 °C -11.6 °C 34716.7 hPa Calm     45 % 0 mm 640.0 W/m2 CLR
11:46 -4.5 °C -11.7 °C 34703.1 hPa WNW 2.6 km/h 2.6 km/h 44 % 0 mm 652.0 W/m2 CLR
11:51 -4.2 °C -11.4 °C 34716.7 hPa East 2.6 km/h 2.6 km/h 44 % 0 mm 661.0 W/m2 CLR
11:56 -4.2 °C -11.6 °C 34703.1 hPa East 9 km/h 9 km/h 43 % 0 mm 670.0 W/m2 CLR
12:01 -4.2 °C -11.6 °C 34703.1 hPa East 9 km/h 9 km/h 43 % 0 mm 679.0 W/m2 CLR
12:06 -3.9 °C -11.6 °C 34703.1 hPa ESE 9 km/h 9 km/h 42 % 0 mm 689.0 W/m2 CLR
12:11 -3.6 °C -11.3 °C 34703.1 hPa ESE 9 km/h 9 km/h 42 % 0 mm 696.0 W/m2 CLR
12:16 -3.6 °C -11.1 °C 34703.1 hPa Calm     43 % 0 mm 705.0 W/m2 CLR
12:21 -3.3 °C -10.8 °C 34703.1 hPa NW 6 km/h 6 km/h 43 % 0 mm 712.0 W/m2 CLR
12:26 -3.9 °C -11.6 °C 34693 hPa NW 6 km/h 6 km/h 42 % 0 mm 719.0 W/m2 CLR
12:31 -3.6 °C -11.7 °C 34693 hPa Calm     40 % 0 mm 728.0 W/m2 CLR
12:36 -3.6 °C -11.5 °C 34693 hPa NNW 15 km/h 15 km/h 41 % 0 mm 735.0 W/m2 CLR
12:41 -3.6 °C -11.7 °C 34693 hPa North 9 km/h   40 % 0 mm 740.0 W/m2 CLR
12:46 -3.3 °C -11.6 °C 34693 hPa North 9 km/h   39 % 0 mm 747.0 W/m2 CLR
12:51 -3.3 °C -11.4 °C 34693 hPa North 11.9 km/h 11.9 km/h 40 % 0 mm 752.0 W/m2 CLR
12:56 -3.3 °C -11.4 °C 34693 hPa Calm     40 % 0 mm 758.0 W/m2 CLR
13:01 -3.3 °C -11.6 °C 34693 hPa ENE 11.9 km/h 11.9 km/h 39 % 0 mm 761.0 W/m2 CLR
13:06 -3.3 °C -11.4 °C 34693 hPa Calm     40 % 0 mm 765.0 W/m2 CLR
13:11 -2.9 °C -11.2 °C 34682.8 hPa NNW 10.3 km/h 10.3 km/h 40 % 0 mm 770.0 W/m2 CLR
13:16 -2.7 °C -11.1 °C 34682.8 hPa NW 3.1 km/h   39 % 0 mm 773.0 W/m2 CLR
13:21 -2.7 °C -11.1 °C 34682.8 hPa North 15 km/h 15 km/h 39 % 0 mm 775.0 W/m2 CLR
13:26 -2.7 °C -11.1 °C 34682.8 hPa North 9 km/h   39 % 0 mm 780.0 W/m2 CLR
13:31 -2.3 °C -11 °C 34669.3 hPa Calm   3.7 km/h 38 % 0 mm 782.0 W/m2 CLR
13:36 -2.7 °C -11.1 °C 34669.3 hPa NW 23.8 km/h 23.8 km/h 39 % 0 mm 784.0 W/m2 CLR
13:41 -2.7 °C -11.3 °C 34669.3 hPa NW 23.8 km/h 23.8 km/h 38 % 0 mm 786.0 W/m2 CLR
13:46 -2.7 °C -11.1 °C 34669.3 hPa Calm     39 % 0 mm 788.0 W/m2 CLR
13:51 -2.7 °C -11.5 °C 34659.1 hPa NNW 11.9 km/h 11.9 km/h 37 % 0 mm 788.0 W/m2 CLR
13:56 -2.7 °C -11.3 °C 34659.1 hPa North 9 km/h 9 km/h 38 % 0 mm 788.0 W/m2 CLR
14:01 -2.3 °C -11.2 °C 34659.1 hPa NW 9 km/h 9 km/h 37 % 0 mm 789.0 W/m2 CLR
14:06 -2.7 °C -11.5 °C 34659.1 hPa Calm     37 % 0 mm 789.0 W/m2 CLR
14:17 -2.1 °C -11.2 °C 34645.6 hPa WNW 9 km/h 9 km/h 36 % 0 mm 786.0 W/m2 CLR
14:22 -2.3 °C -11.7 °C 34645.6 hPa Calm     35 % 0 mm 784.0 W/m2 CLR
14:27 -2.3 °C -11.9 °C 34645.6 hPa North 20.9 km/h 20.9 km/h 34 % 0 mm 782.0 W/m2 CLR
14:32 -2.1 °C -11.2 °C 34645.6 hPa NNW 9 km/h 9 km/h 36 % 0 mm 779.0 W/m2 CLR
14:37 -2.1 °C -11.7 °C 34635.4 hPa NW 6 km/h   34 % 0 mm 775.0 W/m2 CLR
14:42 -2.1 °C -11.7 °C 34635.4 hPa North 17.9 km/h 17.9 km/h 34 % 0 mm 773.0 W/m2 CLR
14:47 -2.1 °C -11.4 °C 34635.4 hPa North 26.9 km/h 26.9 km/h 35 % 0 mm 770.0 W/m2 CLR
14:52 -2.1 °C -11.7 °C 34635.4 hPa North 15 km/h 15 km/h 34 % 0 mm 765.0 W/m2 CLR
14:57 -2.1 °C -11.4 °C 34625.2 hPa North 9 km/h   35 % 0 mm 761.0 W/m2 CLR
15:02 -2.1 °C -11.9 °C 34625.2 hPa Calm     33 % 0 mm 756.0 W/m2 CLR
15:07 -2.1 °C -11.7 °C 34625.2 hPa NNW 15 km/h 15 km/h 34 % 0 mm 751.0 W/m2 CLR
15:12 -2.1 °C -11.7 °C 34611.7 hPa NNW 23.8 km/h 23.8 km/h 34 % 0 mm 745.0 W/m2 CLR
15:17 -1.7 °C -11.4 °C 34611.7 hPa Calm     34 % 0 mm 737.0 W/m2 CLR
15:22 -2.1 °C -11.9 °C 34611.7 hPa WNW 9 km/h 9 km/h 33 % 0 mm 733.0 W/m2 CLR
15:27 -1.7 °C -11.4 °C 34601.5 hPa WNW 10.3 km/h 10.3 km/h 34 % 0 mm 724.0 W/m2 CLR
15:32 -1.7 °C -11.7 °C 34601.5 hPa Calm     33 % 0 mm 717.0 W/m2 CLR
15:37 -1.7 °C -11.9 °C 34601.5 hPa NNW 26.9 km/h 26.9 km/h 32 % 0 mm 708.0 W/m2 CLR
15:42 -1.7 °C -11.9 °C 34601.5 hPa NNW 17.9 km/h 17.9 km/h 32 % 0 mm 700.0 W/m2 CLR
15:47 -1.7 °C -11.9 °C 34601.5 hPa NNW 32.8 km/h 32.8 km/h 32 % 0 mm 691.0 W/m2 CLR
15:52 -1.7 °C -11.9 °C 34591.4 hPa NNW 20.9 km/h 20.9 km/h 32 % 0 mm 684.0 W/m2 CLR
15:57 -1.7 °C -11.9 °C 34591.4 hPa NW 26.9 km/h 26.9 km/h 32 % 0 mm 673.0 W/m2 CLR
16:02 -1.7 °C -11.9 °C 34591.4 hPa WNW 17.9 km/h 17.9 km/h 32 % 0 mm 661.0 W/m2 CLR
16:07 -1.7 °C -11.9 °C 34577.8 hPa NW 26.9 km/h 26.9 km/h 32 % 0 mm 652.0 W/m2 CLR
16:08 -1.7 °C -12.2 °C 34591.4 hPa NW 15.6 km/h 15.6 km/h 31 % 0 mm 650.0 W/m2 CLR
16:13 -1.4 °C -11.9 °C 34577.8 hPa NW 11.9 km/h 11.9 km/h 31 % 0 mm 638.0 W/m2 CLR
16:18 -1.4 °C -11.9 °C 34577.8 hPa NNW 29.8 km/h 29.8 km/h 31 % 0 mm 629.0 W/m2 CLR
16:23 -1.4 °C -11.9 °C 34577.8 hPa NNW 25.9 km/h 25.9 km/h 31 % 0 mm 617.0 W/m2 CLR
16:28 -1.4 °C -11.9 °C 34577.8 hPa NW 25.9 km/h 25.9 km/h 31 % 0 mm 608.0 W/m2 CLR
16:33 -1.4 °C -11.7 °C 34567.7 hPa Calm     32 % 0 mm 594.0 W/m2 CLR
16:38 -1.4 °C -11.9 °C 34567.7 hPa North 29.8 km/h 29.8 km/h 31 % 0 mm 582.0 W/m2 CLR
16:43 -1.1 °C -11.7 °C 34567.7 hPa NNE 10.3 km/h 12.7 km/h 31 % 0 mm 570.0 W/m2 CLR
16:48 -1.1 °C -11.9 °C 34567.7 hPa NE 26.9 km/h 26.9 km/h 30 % 0 mm 559.0 W/m2 CLR
16:54 -1.1 °C -11.9 °C 34554.1 hPa North 17.9 km/h 17.9 km/h 30 % 0 mm 545.0 W/m2 CLR
16:59 -1.1 °C -11.7 °C 34554.1 hPa NE 9 km/h 9 km/h 31 % 0 mm 533.0 W/m2 CLR
17:04 -1.1 °C -11.7 °C 34554.1 hPa NNW 15.6 km/h 15.6 km/h 31 % 0 mm 519.0 W/m2 CLR
17:09 -1.4 °C -11.7 °C 34554.1 hPa Calm     32 % 0 mm 504.0 W/m2 CLR
17:14 -1.1 °C -11.4 °C 34554.1 hPa NW 11.9 km/h 11.9 km/h 32 % 0 mm 489.0 W/m2 CLR
17:19 -1.1 °C -11.4 °C 34554.1 hPa NNE 12.9 km/h 12.9 km/h 32 % 0 mm 475.0 W/m2 CLR
17:24 -1.4 °C -11.2 °C 34544 hPa NE 29.8 km/h 29.8 km/h 34 % 0 mm 461.0 W/m2 CLR
17:29 -1.4 °C -10.9 °C 34544 hPa NNE 11.9 km/h 11.9 km/h 35 % 0 mm 443.0 W/m2 CLR
17:34 -1.4 °C -10.7 °C 34544 hPa ENE 20.9 km/h 20.9 km/h 36 % 0 mm 427.0 W/m2 CLR
17:39 -1.4 °C -10.7 °C 34544 hPa ENE 15 km/h 15 km/h 36 % 0 mm 415.0 W/m2 CLR
17:44 -1.4 °C -10.4 °C 34544 hPa NNE 23.8 km/h 23.8 km/h 37 % 0 mm 396.0 W/m2 CLR
17:49 -1.7 °C -10.4 °C 34544 hPa NE 41.7 km/h 41.7 km/h 38 % 0 mm 383.0 W/m2 CLR
17:54 -1.7 °C -10.4 °C 34544 hPa NE 44.7 km/h 44.7 km/h 38 % 0 mm 367.0 W/m2 CLR
17:59 -1.7 °C -10.2 °C 34544 hPa NE 29.8 km/h 29.8 km/h 39 % 0 mm 352.0 W/m2 CLR
18:04 -1.7 °C -10.2 °C 34533.8 hPa North 17.9 km/h 17.9 km/h 39 % 0 mm 332.0 W/m2 CLR
18:09 -1.7 °C -10.2 °C 34533.8 hPa NNE 23.8 km/h 23.8 km/h 39 % 0 mm 320.0 W/m2 CLR
18:14 -1.7 °C -10.4 °C 34533.8 hPa ENE 26.9 km/h 26.9 km/h 38 % 0 mm 304.0 W/m2 CLR
18:19 -1.7 °C -10.4 °C 34533.8 hPa ENE 26.9 km/h 26.9 km/h 38 % 0 mm 288.0 W/m2 CLR
18:24 -2.1 °C -10.5 °C 34533.8 hPa NE 29.8 km/h 29.8 km/h 39 % 0 mm 271.0 W/m2 CLR
18:30 -2.1 °C -10.5 °C 34533.8 hPa NE 18.2 km/h 18.2 km/h 39 % 0 mm 255.0 W/m2 CLR
18:35 -2.1 °C -10.7 °C 34533.8 hPa NE 26.9 km/h 26.9 km/h 38 % 0 mm 241.0 W/m2 CLR
18:40 -2.3 °C -10.8 °C 34533.8 hPa NE 29.8 km/h 29.8 km/h 39 % 0 mm 223.0 W/m2 CLR
18:45 -2.3 °C -10.8 °C 34533.8 hPa North 23.8 km/h 23.8 km/h 39 % 0 mm 206.0 W/m2 CLR
18:50 -2.3 °C -11 °C 34520.3 hPa NE 25.9 km/h 25.9 km/h 38 % 0 mm 185.0 W/m2 CLR
18:55 -2.3 °C -11 °C 34520.3 hPa NE 23.8 km/h 23.8 km/h 38 % 0 mm 167.0 W/m2 CLR
19:00 -2.3 °C -11 °C 34520.3 hPa NE 11.9 km/h 14.5 km/h 38 % 0 mm 149.0 W/m2 CLR
19:05 -2.3 °C -11 °C 34520.3 hPa ENE 18.2 km/h 18.2 km/h 38 % 0 mm 132.0 W/m2 CLR
19:10 -2.7 °C -11.1 °C 34520.3 hPa NNE 29.8 km/h 29.8 km/h 39 % 0 mm 114.0 W/m2 CLR
19:15 -2.7 °C -10.9 °C 34520.3 hPa NNE 23.8 km/h 23.8 km/h 40 % 0 mm 97.0 W/m2 CLR
19:20 -2.7 °C -10.7 °C 34520.3 hPa NE 17.9 km/h 19.2 km/h 41 % 0 mm 83.0 W/m2 FEW
19:25 -2.9 °C -10.7 °C 34520.3 hPa NE 26.9 km/h 26.9 km/h 42 % 0 mm 69.0 W/m2 FEW
19:30 -2.9 °C -10.7 °C 34520.3 hPa ENE 11.9 km/h   42 % 0 mm 49.0 W/m2 SCT
19:35 -3.3 °C -10.8 °C 34520.3 hPa NE 20.9 km/h 20.9 km/h 43 % 0 mm 42.0 W/m2 BKN
19:40 -3.3 °C -10.8 °C 34520.3 hPa Calm     43 % 0 mm 32.0 W/m2 BKN
19:45 -3.6 °C -10.9 °C 34520.3 hPa NE 12.9 km/h 12.9 km/h 44 % 0 mm 23.0 W/m2 BKN
19:50 -3.9 °C -11 °C 34520.3 hPa NE 15 km/h 15 km/h 45 % 0 mm 18.0 W/m2 BKN
19:55 -3.9 °C -10.8 °C 34520.3 hPa Calm     46 % 0 mm 14.0 W/m2 BKN
20:00 -4.2 °C -10.9 °C 34520.3 hPa NE 11.9 km/h 11.9 km/h 47 % 0 mm 12.0 W/m2 BKN
20:05 -4.5 °C -10.8 °C 34520.3 hPa Calm     49 % 0 mm 9.0 W/m2 BKN
20:10 -4.8 °C -11.1 °C 34510.1 hPa ENE 25.9 km/h 25.9 km/h 49 % 0 mm 5.0 W/m2 OVC
20:15 -4.8 °C -11.1 °C 34510.1 hPa ENE 9 km/h 9 km/h 49 % 0 mm 0.0 W/m2 OVC
20:20 -4.8 °C -10.9 °C 34520.3 hPa ENE 5.1 km/h   50 % 0 mm 0.0 W/m2 OVC
20:25 -5.1 °C -11.2 °C 34510.1 hPa ENE 17.9 km/h 17.9 km/h 50 % 0 mm 0.0 W/m2 CLR
20:30 -5.4 °C -11.3 °C 34520.3 hPa ENE 26.9 km/h 26.9 km/h 51 % 0 mm 0.0 W/m2 CLR
20:35 -5.7 °C -11.4 °C 34520.3 hPa ENE 20.9 km/h 20.9 km/h 52 % 0 mm 0.0 W/m2 CLR
20:40 -5.7 °C -11.4 °C 34520.3 hPa East 20.8 km/h 20.8 km/h 52 % 0 mm 0.0 W/m2 CLR
20:45 -6.1 °C -11.6 °C 34520.3 hPa ENE 23.8 km/h 23.8 km/h 53 % 0 mm 0.0 W/m2 CLR
20:50 -6.1 °C -11.4 °C 34520.3 hPa East 20.9 km/h 20.9 km/h 54 % 0 mm 0.0 W/m2 CLR
20:55 -6.1 °C -11.3 °C 34533.8 hPa ENE 12.9 km/h 12.9 km/h 55 % 0 mm 0.0 W/m2 CLR
21:00 -6.3 °C -11.6 °C 34533.8 hPa Calm     55 % 0 mm 0.0 W/m2 CLR
21:05 -6.3 °C -11.6 °C 34533.8 hPa Calm     55 % 0 mm 0.0 W/m2 CLR
21:10 -6.3 °C -11.4 °C 34533.8 hPa Calm     56 % 0 mm 0.0 W/m2 CLR
21:15 -6.7 °C -11.6 °C 34533.8 hPa Calm     57 % 0 mm 0.0 W/m2 CLR
21:20 -7 °C -11.7 °C 34533.8 hPa Calm     58 % 0 mm 0.0 W/m2 CLR
21:25 -7 °C -11.6 °C 34544 hPa Calm     59 % 0 mm 0.0 W/m2 CLR
21:30 -7.3 °C -11.6 °C 34544 hPa Calm     61 % 0 mm 0.0 W/m2 CLR
21:35 -7.3 °C -11.4 °C 34533.8 hPa Calm     62 % 0 mm 0.0 W/m2 CLR
21:40 -7.3 °C -11.2 °C 34544 hPa Calm     64 % 0 mm 0.0 W/m2 CLR
21:45 -7 °C -10.7 °C 34544 hPa Calm     65 % 0 mm 0.0 W/m2 CLR
21:50 -7 °C -10.6 °C 34544 hPa NE 9 km/h 9 km/h 66 % 0 mm 0.0 W/m2 CLR
21:55 -7 °C -10.6 °C 34544 hPa Calm     66 % 0 mm 0.0 W/m2 CLR
22:00 -7 °C -10.4 °C 34544 hPa Calm     67 % 0 mm 0.0 W/m2 CLR
22:05 -7 °C -10.3 °C 34544 hPa Calm     68 % 0 mm 0.0 W/m2 CLR
22:10 -7.3 °C -10.7 °C 34544 hPa Calm     68 % 0 mm 0.0 W/m2 CLR
22:15 -7.3 °C -10.5 °C 34554.1 hPa Calm     69 % 0 mm 0.0 W/m2 CLR
22:20 -7.6 °C -10.8 °C 34544 hPa Calm     69 % 0 mm 0.0 W/m2 CLR
22:25 -7.6 °C -10.7 °C 34544 hPa Calm     70 % 0 mm 0.0 W/m2 CLR
22:30 -7.9 °C -11 °C 34554.1 hPa Calm     70 % 0 mm 0.0 W/m2 CLR
22:35 -7.9 °C -11 °C 34544 hPa Calm     70 % 0 mm 0.0 W/m2 CLR
22:40 -8.2 °C -11.3 °C 34544 hPa Calm     70 % 0 mm 0.0 W/m2 CLR
22:45 -8.2 °C -11.3 °C 34533.8 hPa Calm     70 % 0 mm 0.0 W/m2 CLR
22:50 -8.2 °C -11.3 °C 34544 hPa Calm     70 % 0 mm 0.0 W/m2 CLR
22:55 -8.2 °C -11.3 °C 34544 hPa Calm     70 % 0 mm 0.0 W/m2 CLR
23:00 -7.9 °C -11 °C 34544 hPa Calm     70 % 0 mm 0.0 W/m2 CLR
23:05 -7.9 °C -11.1 °C 34533.8 hPa Calm     69 % 0 mm 0.0 W/m2 CLR
23:10 -7.9 °C -11.1 °C 34533.8 hPa Calm     69 % 0 mm 0.0 W/m2 CLR
23:15 -8.2 °C -11.3 °C 34544 hPa Calm     70 % 0 mm 0.0 W/m2 CLR
23:20 -8.2 °C -11.3 °C 34544 hPa Calm     70 % 0 mm 0.0 W/m2 CLR
23:25 -8.2 °C -11.3 °C 34544 hPa Calm     70 % 0 mm 0.0 W/m2 CLR
23:30 -8.2 °C -11.3 °C 34533.8 hPa Calm     70 % 0 mm 0.0 W/m2 CLR
23:35 -8.5 °C -11.6 °C 34533.8 hPa Calm     70 % 0 mm 0.0 W/m2 CLR
23:40 -8.5 °C -11.6 °C 34533.8 hPa Calm     70 % 0 mm 0.0 W/m2 CLR
23:45 -8.8 °C -12 °C 34533.8 hPa Calm     69 % 0 mm 0.0 W/m2 CLR
23:50 -8.8 °C -11.9 °C 34533.8 hPa Calm     70 % 0 mm 0.0 W/m2 CLR
23:55 -8.8 °C -11.9 °C 34533.8 hPa Calm     70 % 0 mm 0.0 W/m2 CLR
Lo Temps de Massalio
Compliments of Weather Underground - 1.25 mb